sensor_id;sensor_type;location;lat;lon;timestamp;temperature;humidity
6843;DHT22;3460;52.028;8.916;2023-03-16T00:00:56;0.40;99.90
6843;DHT22;3460;52.028;8.916;2023-03-16T00:03:23;0.40;99.90
6843;DHT22;3460;52.028;8.916;2023-03-16T00:05:52;0.50;99.90
6843;DHT22;3460;52.028;8.916;2023-03-16T00:08:19;0.50;99.90
6843;DHT22;3460;52.028;8.916;2023-03-16T00:10:46;0.50;99.90
6843;DHT22;3460;52.028;8.916;2023-03-16T00:13:14;0.50;99.90
6843;DHT22;3460;52.028;8.916;2023-03-16T00:15:48;0.60;99.90
6843;DHT22;3460;52.028;8.916;2023-03-16T00:18:15;0.60;99.90
6843;DHT22;3460;52.028;8.916;2023-03-16T00:20:42;0.60;99.90
6843;DHT22;3460;52.028;8.916;2023-03-16T00:23:09;0.60;99.90
6843;DHT22;3460;52.028;8.916;2023-03-16T00:25:36;0.60;99.90
6843;DHT22;3460;52.028;8.916;2023-03-16T00:28:03;0.50;99.90
6843;DHT22;3460;52.028;8.916;2023-03-16T00:30:30;0.50;99.90
6843;DHT22;3460;52.028;8.916;2023-03-16T00:32:58;0.50;99.90
6843;DHT22;3460;52.028;8.916;2023-03-16T00:35:26;0.60;99.90
6843;DHT22;3460;52.028;8.916;2023-03-16T00:37:53;0.50;99.90
6843;DHT22;3460;52.028;8.916;2023-03-16T00:40:22;0.60;99.90
6843;DHT22;3460;52.028;8.916;2023-03-16T00:42:48;0.60;99.90
6843;DHT22;3460;52.028;8.916;2023-03-16T00:45:15;0.60;99.90
6843;DHT22;3460;52.028;8.916;2023-03-16T00:47:42;0.60;99.90
6843;DHT22;3460;52.028;8.916;2023-03-16T00:50:10;0.60;99.90
6843;DHT22;3460;52.028;8.916;2023-03-16T00:52:37;0.60;99.90
6843;DHT22;3460;52.028;8.916;2023-03-16T00:55:05;0.50;99.90
6843;DHT22;3460;52.028;8.916;2023-03-16T00:57:33;0.40;99.90
6843;DHT22;3460;52.028;8.916;2023-03-16T00:59:59;0.40;99.90
6843;DHT22;3460;52.028;8.916;2023-03-16T01:02:35;0.30;99.90
6843;DHT22;3460;52.028;8.916;2023-03-16T01:05:02;0.30;99.90
6843;DHT22;3460;52.028;8.916;2023-03-16T01:07:31;0.30;99.90
6843;DHT22;3460;52.028;8.916;2023-03-16T01:10:00;0.30;99.90
6843;DHT22;3460;52.028;8.916;2023-03-16T01:12:27;0.40;99.90
6843;DHT22;3460;52.028;8.916;2023-03-16T01:14:54;0.30;99.90
6843;DHT22;3460;52.028;8.916;2023-03-16T01:17:21;0.30;99.90
6843;DHT22;3460;52.028;8.916;2023-03-16T01:19:48;0.20;99.90
6843;DHT22;3460;52.028;8.916;2023-03-16T01:22:16;0.20;99.90
6843;DHT22;3460;52.028;8.916;2023-03-16T01:24:44;0.20;99.90
6843;DHT22;3460;52.028;8.916;2023-03-16T01:27:12;0.10;99.90
6843;DHT22;3460;52.028;8.916;2023-03-16T01:29:39;0.20;99.90
6843;DHT22;3460;52.028;8.916;2023-03-16T01:32:08;0.20;99.90
6843;DHT22;3460;52.028;8.916;2023-03-16T01:34:35;0.10;99.90
6843;DHT22;3460;52.028;8.916;2023-03-16T01:37:01;0.10;99.90
6843;DHT22;3460;52.028;8.916;2023-03-16T01:39:28;0.10;99.90
6843;DHT22;3460;52.028;8.916;2023-03-16T01:41:56;0.10;99.90
6843;DHT22;3460;52.028;8.916;2023-03-16T01:44:25;0.10;99.90
6843;DHT22;3460;52.028;8.916;2023-03-16T01:46:54;0.10;99.90
6843;DHT22;3460;52.028;8.916;2023-03-16T01:49:24;0.10;99.90
6843;DHT22;3460;52.028;8.916;2023-03-16T01:51:54;0.10;99.90
6843;DHT22;3460;52.028;8.916;2023-03-16T01:54:25;0.10;99.90
6843;DHT22;3460;52.028;8.916;2023-03-16T01:57:02;0.20;99.90
6843;DHT22;3460;52.028;8.916;2023-03-16T01:59:33;0.10;99.90
6843;DHT22;3460;52.028;8.916;2023-03-16T02:02:01;0.10;99.90
6843;DHT22;3460;52.028;8.916;2023-03-16T02:04:36;0.10;99.90
6843;DHT22;3460;52.028;8.916;2023-03-16T02:07:07;0.10;99.90
6843;DHT22;3460;52.028;8.916;2023-03-16T02:09:36;0.00;99.90
6843;DHT22;3460;52.028;8.916;2023-03-16T02:12:07;0.00;99.90
6843;DHT22;3460;52.028;8.916;2023-03-16T02:14:43;0.00;99.90
6843;DHT22;3460;52.028;8.916;2023-03-16T02:17:11;0.00;99.90
6843;DHT22;3460;52.028;8.916;2023-03-16T02:19:42;0.00;99.90
6843;DHT22;3460;52.028;8.916;2023-03-16T02:22:13;0.00;99.90
6843;DHT22;3460;52.028;8.916;2023-03-16T02:24:40;0.00;99.90
6843;DHT22;3460;52.028;8.916;2023-03-16T02:27:11;0.00;99.90
6843;DHT22;3460;52.028;8.916;2023-03-16T02:30:03;0.00;99.90
6843;DHT22;3460;52.028;8.916;2023-03-16T02:32:31;0.00;99.90
6843;DHT22;3460;52.028;8.916;2023-03-16T02:34:59;0.10;99.90
6843;DHT22;3460;52.028;8.916;2023-03-16T02:37:27;0.10;99.90
6843;DHT22;3460;52.028;8.916;2023-03-16T02:39:54;0.10;99.90
6843;DHT22;3460;52.028;8.916;2023-03-16T02:42:22;0.10;99.90
6843;DHT22;3460;52.028;8.916;2023-03-16T02:44:54;0.10;99.90
6843;DHT22;3460;52.028;8.916;2023-03-16T02:47:29;0.10;99.90
6843;DHT22;3460;52.028;8.916;2023-03-16T02:49:57;0.10;99.90
6843;DHT22;3460;52.028;8.916;2023-03-16T02:52:24;0.10;99.90
6843;DHT22;3460;52.028;8.916;2023-03-16T02:54:51;0.10;99.90
6843;DHT22;3460;52.028;8.916;2023-03-16T02:57:18;0.10;99.90
6843;DHT22;3460;52.028;8.916;2023-03-16T02:59:45;0.10;99.90
6843;DHT22;3460;52.028;8.916;2023-03-16T03:02:12;0.10;99.90
6843;DHT22;3460;52.028;8.916;2023-03-16T03:04:41;0.10;99.90
6843;DHT22;3460;52.028;8.916;2023-03-16T03:07:10;0.00;99.90
6843;DHT22;3460;52.028;8.916;2023-03-16T03:09:38;0.00;99.90
6843;DHT22;3460;52.028;8.916;2023-03-16T03:12:07;0.00;99.90
6843;DHT22;3460;52.028;8.916;2023-03-16T03:14:33;0.00;99.90
6843;DHT22;3460;52.028;8.916;2023-03-16T03:17:03;0.00;99.90
6843;DHT22;3460;52.028;8.916;2023-03-16T03:19:30;-0.10;99.90
6843;DHT22;3460;52.028;8.916;2023-03-16T03:22:00;-0.10;99.90
6843;DHT22;3460;52.028;8.916;2023-03-16T03:24:28;-0.10;99.90
6843;DHT22;3460;52.028;8.916;2023-03-16T03:26:56;-0.10;99.90
6843;DHT22;3460;52.028;8.916;2023-03-16T03:29:23;-0.10;99.90
6843;DHT22;3460;52.028;8.916;2023-03-16T03:31:50;-0.10;99.90
6843;DHT22;3460;52.028;8.916;2023-03-16T03:34:16;-0.10;99.90
6843;DHT22;3460;52.028;8.916;2023-03-16T03:36:43;0.00;99.90
6843;DHT22;3460;52.028;8.916;2023-03-16T03:39:11;-0.10;99.90
6843;DHT22;3460;52.028;8.916;2023-03-16T03:41:38;-0.10;99.90
6843;DHT22;3460;52.028;8.916;2023-03-16T03:44:05;-0.10;99.90
6843;DHT22;3460;52.028;8.916;2023-03-16T03:46:32;-0.10;99.90
6843;DHT22;3460;52.028;8.916;2023-03-16T03:48:59;-0.10;99.90
6843;DHT22;3460;52.028;8.916;2023-03-16T03:51:28;-0.10;99.90
6843;DHT22;3460;52.028;8.916;2023-03-16T03:53:55;-0.10;99.90
6843;DHT22;3460;52.028;8.916;2023-03-16T03:56:24;-0.10;99.90
6843;DHT22;3460;52.028;8.916;2023-03-16T03:58:51;-0.10;99.90
6843;DHT22;3460;52.028;8.916;2023-03-16T04:01:17;-0.10;99.90
6843;DHT22;3460;52.028;8.916;2023-03-16T04:03:44;-0.20;99.90
6843;DHT22;3460;52.028;8.916;2023-03-16T04:06:11;-0.20;99.90
6843;DHT22;3460;52.028;8.916;2023-03-16T04:08:38;-0.20;99.90
6843;DHT22;3460;52.028;8.916;2023-03-16T04:11:05;-0.30;99.90
6843;DHT22;3460;52.028;8.916;2023-03-16T04:13:33;-0.30;99.90
6843;DHT22;3460;52.028;8.916;2023-03-16T04:16:00;-0.30;99.90
6843;DHT22;3460;52.028;8.916;2023-03-16T04:18:28;-0.30;99.90
6843;DHT22;3460;52.028;8.916;2023-03-16T04:21:03;-0.30;99.90
6843;DHT22;3460;52.028;8.916;2023-03-16T04:23:30;-0.40;99.90
6843;DHT22;3460;52.028;8.916;2023-03-16T04:25:58;-0.40;99.90
6843;DHT22;3460;52.028;8.916;2023-03-16T04:28:25;-0.40;99.90
6843;DHT22;3460;52.028;8.916;2023-03-16T04:30:53;-0.40;99.90
6843;DHT22;3460;52.028;8.916;2023-03-16T04:33:20;-0.30;99.90
6843;DHT22;3460;52.028;8.916;2023-03-16T04:35:47;-0.30;99.90
6843;DHT22;3460;52.028;8.916;2023-03-16T04:38:14;-0.30;99.90
6843;DHT22;3460;52.028;8.916;2023-03-16T04:40:41;-0.30;99.90
6843;DHT22;3460;52.028;8.916;2023-03-16T04:43:07;-0.30;99.90
6843;DHT22;3460;52.028;8.916;2023-03-16T04:45:34;-0.40;99.90
6843;DHT22;3460;52.028;8.916;2023-03-16T04:48:03;-0.30;99.90
6843;DHT22;3460;52.028;8.916;2023-03-16T04:50:30;-0.30;99.90
6843;DHT22;3460;52.028;8.916;2023-03-16T04:52:56;-0.30;99.90
6843;DHT22;3460;52.028;8.916;2023-03-16T04:55:23;-0.30;99.90
6843;DHT22;3460;52.028;8.916;2023-03-16T04:57:50;-0.30;99.90
6843;DHT22;3460;52.028;8.916;2023-03-16T05:00:18;-0.30;99.90
6843;DHT22;3460;52.028;8.916;2023-03-16T05:02:46;-0.30;99.90
6843;DHT22;3460;52.028;8.916;2023-03-16T05:05:15;-0.30;99.90
6843;DHT22;3460;52.028;8.916;2023-03-16T05:07:42;-0.30;99.90
6843;DHT22;3460;52.028;8.916;2023-03-16T05:10:09;-0.30;99.90
6843;DHT22;3460;52.028;8.916;2023-03-16T05:12:36;-0.30;99.90
6843;DHT22;3460;52.028;8.916;2023-03-16T05:15:04;-0.30;99.90
6843;DHT22;3460;52.028;8.916;2023-03-16T05:17:31;-0.10;99.90
6843;DHT22;3460;52.028;8.916;2023-03-16T05:19:59;-0.20;99.90
6843;DHT22;3460;52.028;8.916;2023-03-16T05:22:27;-0.20;99.90
6843;DHT22;3460;52.028;8.916;2023-03-16T05:24:54;-0.20;99.90
6843;DHT22;3460;52.028;8.916;2023-03-16T05:27:20;-0.20;99.90
6843;DHT22;3460;52.028;8.916;2023-03-16T05:29:47;-0.20;99.90
6843;DHT22;3460;52.028;8.916;2023-03-16T05:32:14;-0.20;99.90
6843;DHT22;3460;52.028;8.916;2023-03-16T05:34:42;-0.20;99.90
6843;DHT22;3460;52.028;8.916;2023-03-16T05:37:09;-0.20;99.90
6843;DHT22;3460;52.028;8.916;2023-03-16T05:39:37;-0.10;99.90
6843;DHT22;3460;52.028;8.916;2023-03-16T05:42:04;-0.10;99.90
6843;DHT22;3460;52.028;8.916;2023-03-16T05:44:32;-0.10;99.90
6843;DHT22;3460;52.028;8.916;2023-03-16T05:46:59;-0.10;99.90
6843;DHT22;3460;52.028;8.916;2023-03-16T05:49:25;-0.10;99.90
6843;DHT22;3460;52.028;8.916;2023-03-16T05:51:52;-0.10;99.90
6843;DHT22;3460;52.028;8.916;2023-03-16T05:54:19;0.00;99.90
6843;DHT22;3460;52.028;8.916;2023-03-16T05:56:47;0.00;99.90
6843;DHT22;3460;52.028;8.916;2023-03-16T05:59:14;0.00;99.90
6843;DHT22;3460;52.028;8.916;2023-03-16T06:01:42;0.10;99.90
6843;DHT22;3460;52.028;8.916;2023-03-16T06:04:09;0.00;99.90
6843;DHT22;3460;52.028;8.916;2023-03-16T06:06:36;0.10;99.90
6843;DHT22;3460;52.028;8.916;2023-03-16T06:09:03;0.20;99.90
6843;DHT22;3460;52.028;8.916;2023-03-16T06:11:30;0.20;99.90
6843;DHT22;3460;52.028;8.916;2023-03-16T06:13:58;0.20;99.90
6843;DHT22;3460;52.028;8.916;2023-03-16T06:16:25;0.30;99.90
6843;DHT22;3460;52.028;8.916;2023-03-16T06:18:52;0.30;99.90
6843;DHT22;3460;52.028;8.916;2023-03-16T06:21:20;0.40;99.90
6843;DHT22;3460;52.028;8.916;2023-03-16T06:23:47;0.40;99.90
6843;DHT22;3460;52.028;8.916;2023-03-16T06:26:14;0.40;99.90
6843;DHT22;3460;52.028;8.916;2023-03-16T06:28:41;0.50;99.90
6843;DHT22;3460;52.028;8.916;2023-03-16T06:31:09;0.50;99.90
6843;DHT22;3460;52.028;8.916;2023-03-16T06:33:36;0.50;99.90
6843;DHT22;3460;52.028;8.916;2023-03-16T06:36:03;0.50;99.90
6843;DHT22;3460;52.028;8.916;2023-03-16T06:38:30;0.50;99.90
6843;DHT22;3460;52.028;8.916;2023-03-16T06:40:58;0.50;99.90
6843;DHT22;3460;52.028;8.916;2023-03-16T06:43:24;0.60;99.90
6843;DHT22;3460;52.028;8.916;2023-03-16T06:45:51;0.60;99.90
6843;DHT22;3460;52.028;8.916;2023-03-16T06:48:20;0.70;99.90
6843;DHT22;3460;52.028;8.916;2023-03-16T06:50:46;0.70;99.90
6843;DHT22;3460;52.028;8.916;2023-03-16T06:53:13;0.70;99.90
6843;DHT22;3460;52.028;8.916;2023-03-16T06:55:40;0.80;99.90
6843;DHT22;3460;52.028;8.916;2023-03-16T06:58:07;0.80;99.90
6843;DHT22;3460;52.028;8.916;2023-03-16T07:00:34;0.90;99.90
6843;DHT22;3460;52.028;8.916;2023-03-16T07:03:01;0.90;99.90
6843;DHT22;3460;52.028;8.916;2023-03-16T07:05:29;1.00;99.90
6843;DHT22;3460;52.028;8.916;2023-03-16T07:07:56;1.00;99.90
6843;DHT22;3460;52.028;8.916;2023-03-16T07:10:23;1.10;99.90
6843;DHT22;3460;52.028;8.916;2023-03-16T07:12:50;1.10;99.90
6843;DHT22;3460;52.028;8.916;2023-03-16T07:15:17;1.20;99.90
6843;DHT22;3460;52.028;8.916;2023-03-16T07:17:44;1.30;99.90
6843;DHT22;3460;52.028;8.916;2023-03-16T07:20:11;1.30;99.90
6843;DHT22;3460;52.028;8.916;2023-03-16T07:22:40;1.30;99.90
6843;DHT22;3460;52.028;8.916;2023-03-16T07:25:08;1.50;99.90
6843;DHT22;3460;52.028;8.916;2023-03-16T07:27:35;1.50;99.90
6843;DHT22;3460;52.028;8.916;2023-03-16T07:30:03;1.60;99.90
6843;DHT22;3460;52.028;8.916;2023-03-16T07:32:30;1.60;99.90
6843;DHT22;3460;52.028;8.916;2023-03-16T07:34:57;1.70;99.90
6843;DHT22;3460;52.028;8.916;2023-03-16T07:37:24;1.70;99.90
6843;DHT22;3460;52.028;8.916;2023-03-16T07:39:53;1.90;99.90
6843;DHT22;3460;52.028;8.916;2023-03-16T07:42:19;2.00;99.90
6843;DHT22;3460;52.028;8.916;2023-03-16T07:44:47;2.10;99.90
6843;DHT22;3460;52.028;8.916;2023-03-16T07:47:14;2.20;99.90
6843;DHT22;3460;52.028;8.916;2023-03-16T07:49:41;2.30;99.90
6843;DHT22;3460;52.028;8.916;2023-03-16T07:52:09;2.40;99.90
6843;DHT22;3460;52.028;8.916;2023-03-16T07:54:38;2.50;99.90
6843;DHT22;3460;52.028;8.916;2023-03-16T07:57:06;2.60;99.90
6843;DHT22;3460;52.028;8.916;2023-03-16T07:59:33;2.60;99.90
6843;DHT22;3460;52.028;8.916;2023-03-16T08:02:00;2.60;99.90
6843;DHT22;3460;52.028;8.916;2023-03-16T08:04:27;2.70;99.90
6843;DHT22;3460;52.028;8.916;2023-03-16T08:06:54;2.60;99.90
6843;DHT22;3460;52.028;8.916;2023-03-16T08:09:24;2.70;99.90
6843;DHT22;3460;52.028;8.916;2023-03-16T08:11:51;2.70;99.90
6843;DHT22;3460;52.028;8.916;2023-03-16T08:14:20;2.80;99.90
6843;DHT22;3460;52.028;8.916;2023-03-16T08:16:46;2.90;99.90
6843;DHT22;3460;52.028;8.916;2023-03-16T08:19:13;2.90;99.90
6843;DHT22;3460;52.028;8.916;2023-03-16T08:21:42;3.00;99.90
6843;DHT22;3460;52.028;8.916;2023-03-16T08:24:08;3.10;99.90
6843;DHT22;3460;52.028;8.916;2023-03-16T08:26:35;3.20;99.90
6843;DHT22;3460;52.028;8.916;2023-03-16T08:29:02;3.30;99.90
6843;DHT22;3460;52.028;8.916;2023-03-16T08:31:30;3.30;99.90
6843;DHT22;3460;52.028;8.916;2023-03-16T08:34:00;3.40;99.90
6843;DHT22;3460;52.028;8.916;2023-03-16T08:36:27;3.60;99.90
6843;DHT22;3460;52.028;8.916;2023-03-16T08:38:55;3.70;99.90
6843;DHT22;3460;52.028;8.916;2023-03-16T08:41:22;3.80;99.90
6843;DHT22;3460;52.028;8.916;2023-03-16T08:43:49;3.80;99.90
6843;DHT22;3460;52.028;8.916;2023-03-16T08:46:16;4.00;99.90
6843;DHT22;3460;52.028;8.916;2023-03-16T08:48:44;4.00;99.90
6843;DHT22;3460;52.028;8.916;2023-03-16T08:51:11;4.20;99.90
6843;DHT22;3460;52.028;8.916;2023-03-16T08:53:38;4.30;99.90
6843;DHT22;3460;52.028;8.916;2023-03-16T08:56:06;4.40;99.90
6843;DHT22;3460;52.028;8.916;2023-03-16T08:58:34;4.60;99.90
6843;DHT22;3460;52.028;8.916;2023-03-16T09:01:03;4.60;99.90
6843;DHT22;3460;52.028;8.916;2023-03-16T09:03:31;4.70;99.90
6843;DHT22;3460;52.028;8.916;2023-03-16T09:06:05;4.90;99.90
6843;DHT22;3460;52.028;8.916;2023-03-16T09:08:32;4.80;99.90
6843;DHT22;3460;52.028;8.916;2023-03-16T09:11:00;4.90;99.90
6843;DHT22;3460;52.028;8.916;2023-03-16T09:13:29;5.10;99.90
6843;DHT22;3460;52.028;8.916;2023-03-16T09:15:56;5.20;99.90
6843;DHT22;3460;52.028;8.916;2023-03-16T09:18:24;5.20;99.90
6843;DHT22;3460;52.028;8.916;2023-03-16T09:20:51;5.30;99.90
6843;DHT22;3460;52.028;8.916;2023-03-16T09:23:20;5.30;99.90
6843;DHT22;3460;52.028;8.916;2023-03-16T09:25:46;5.50;99.90
6843;DHT22;3460;52.028;8.916;2023-03-16T09:28:13;5.60;99.90
6843;DHT22;3460;52.028;8.916;2023-03-16T09:30:42;5.50;99.90
6843;DHT22;3460;52.028;8.916;2023-03-16T09:33:36;5.60;99.90
6843;DHT22;3460;52.028;8.916;2023-03-16T09:36:03;5.50;99.90
6843;DHT22;3460;52.028;8.916;2023-03-16T09:38:31;5.50;99.90
6843;DHT22;3460;52.028;8.916;2023-03-16T09:41:00;5.50;99.90
6843;DHT22;3460;52.028;8.916;2023-03-16T09:43:44;5.60;99.90
6843;DHT22;3460;52.028;8.916;2023-03-16T09:46:15;5.80;99.90
6843;DHT22;3460;52.028;8.916;2023-03-16T09:48:46;5.90;99.90
6843;DHT22;3460;52.028;8.916;2023-03-16T09:51:19;6.30;99.90
6843;DHT22;3460;52.028;8.916;2023-03-16T09:53:53;6.40;99.90
6843;DHT22;3460;52.028;8.916;2023-03-16T09:56:28;6.40;99.90
6843;DHT22;3460;52.028;8.916;2023-03-16T09:58:57;6.50;99.90
6843;DHT22;3460;52.028;8.916;2023-03-16T10:01:33;6.60;99.90
6843;DHT22;3460;52.028;8.916;2023-03-16T10:04:13;6.70;99.90
6843;DHT22;3460;52.028;8.916;2023-03-16T10:06:47;6.60;99.90
6843;DHT22;3460;52.028;8.916;2023-03-16T10:09:27;6.90;99.90
6843;DHT22;3460;52.028;8.916;2023-03-16T10:11:57;7.00;99.90
6843;DHT22;3460;52.028;8.916;2023-03-16T10:14:31;7.00;99.90
6843;DHT22;3460;52.028;8.916;2023-03-16T10:17:00;7.10;99.90
6843;DHT22;3460;52.028;8.916;2023-03-16T10:19:33;7.20;99.90
6843;DHT22;3460;52.028;8.916;2023-03-16T10:22:15;7.20;99.90
6843;DHT22;3460;52.028;8.916;2023-03-16T10:25:00;7.20;99.90
6843;DHT22;3460;52.028;8.916;2023-03-16T10:27:29;7.20;99.90
6843;DHT22;3460;52.028;8.916;2023-03-16T10:29:56;7.20;99.90
6843;DHT22;3460;52.028;8.916;2023-03-16T10:32:30;7.30;99.90
6843;DHT22;3460;52.028;8.916;2023-03-16T10:35:02;7.40;99.90
6843;DHT22;3460;52.028;8.916;2023-03-16T10:37:31;7.40;99.90
6843;DHT22;3460;52.028;8.916;2023-03-16T10:40:00;7.40;99.90
6843;DHT22;3460;52.028;8.916;2023-03-16T10:42:29;7.50;99.90
6843;DHT22;3460;52.028;8.916;2023-03-16T10:44:56;7.50;99.90
6843;DHT22;3460;52.028;8.916;2023-03-16T10:47:27;7.50;99.90
6843;DHT22;3460;52.028;8.916;2023-03-16T10:49:55;7.50;99.90
6843;DHT22;3460;52.028;8.916;2023-03-16T10:52:26;7.50;99.90
6843;DHT22;3460;52.028;8.916;2023-03-16T10:54:57;7.70;99.90
6843;DHT22;3460;52.028;8.916;2023-03-16T10:57:30;7.80;99.90
6843;DHT22;3460;52.028;8.916;2023-03-16T11:00:03;7.70;99.90
6843;DHT22;3460;52.028;8.916;2023-03-16T11:02:41;7.70;99.90
6843;DHT22;3460;52.028;8.916;2023-03-16T11:05:26;7.70;99.90
6843;DHT22;3460;52.028;8.916;2023-03-16T11:07:58;7.60;99.90
6843;DHT22;3460;52.028;8.916;2023-03-16T11:10:28;7.80;99.90
6843;DHT22;3460;52.028;8.916;2023-03-16T11:13:04;7.80;99.90
6843;DHT22;3460;52.028;8.916;2023-03-16T11:15:42;7.90;99.90
6843;DHT22;3460;52.028;8.916;2023-03-16T11:18:20;8.00;99.90
6843;DHT22;3460;52.028;8.916;2023-03-16T11:20:49;7.90;99.90
6843;DHT22;3460;52.028;8.916;2023-03-16T11:23:29;7.90;99.90
6843;DHT22;3460;52.028;8.916;2023-03-16T11:25:59;7.90;99.90
6843;DHT22;3460;52.028;8.916;2023-03-16T11:28:35;8.10;99.90
6843;DHT22;3460;52.028;8.916;2023-03-16T11:31:12;8.20;99.90
6843;DHT22;3460;52.028;8.916;2023-03-16T11:33:42;8.20;99.90
6843;DHT22;3460;52.028;8.916;2023-03-16T11:36:21;8.30;99.90
6843;DHT22;3460;52.028;8.916;2023-03-16T11:38:59;8.40;99.90
6843;DHT22;3460;52.028;8.916;2023-03-16T11:41:36;8.40;99.90
6843;DHT22;3460;52.028;8.916;2023-03-16T11:44:13;8.60;99.90
6843;DHT22;3460;52.028;8.916;2023-03-16T11:46:50;8.60;99.90
6843;DHT22;3460;52.028;8.916;2023-03-16T11:49:35;8.50;99.90
6843;DHT22;3460;52.028;8.916;2023-03-16T11:52:12;8.70;99.90
6843;DHT22;3460;52.028;8.916;2023-03-16T11:54:51;8.80;99.90
6843;DHT22;3460;52.028;8.916;2023-03-16T11:57:32;8.70;99.90
6843;DHT22;3460;52.028;8.916;2023-03-16T12:00:12;8.70;99.90
6843;DHT22;3460;52.028;8.916;2023-03-16T12:03:15;8.60;99.90
6843;DHT22;3460;52.028;8.916;2023-03-16T12:05:54;8.60;99.90
6843;DHT22;3460;52.028;8.916;2023-03-16T12:08:36;8.60;99.90
6843;DHT22;3460;52.028;8.916;2023-03-16T12:11:09;8.60;99.90
6843;DHT22;3460;52.028;8.916;2023-03-16T12:13:57;8.60;99.90
6843;DHT22;3460;52.028;8.916;2023-03-16T12:16:29;8.80;99.90
6843;DHT22;3460;52.028;8.916;2023-03-16T12:18:59;8.90;99.90
6843;DHT22;3460;52.028;8.916;2023-03-16T12:21:32;8.90;99.90
6843;DHT22;3460;52.028;8.916;2023-03-16T12:24:02;8.80;99.90
6843;DHT22;3460;52.028;8.916;2023-03-16T12:26:34;8.80;99.90
6843;DHT22;3460;52.028;8.916;2023-03-16T12:29:06;8.80;99.90
6843;DHT22;3460;52.028;8.916;2023-03-16T12:31:44;8.80;99.90
6843;DHT22;3460;52.028;8.916;2023-03-16T12:34:21;8.80;99.90
6843;DHT22;3460;52.028;8.916;2023-03-16T12:37:07;8.70;99.90
6843;DHT22;3460;52.028;8.916;2023-03-16T12:40:02;8.80;99.90
6843;DHT22;3460;52.028;8.916;2023-03-16T12:42:49;8.90;99.90
6843;DHT22;3460;52.028;8.916;2023-03-16T12:45:26;9.00;99.90
6843;DHT22;3460;52.028;8.916;2023-03-16T12:48:02;9.00;99.90
6843;DHT22;3460;52.028;8.916;2023-03-16T12:50:32;8.90;99.90
6843;DHT22;3460;52.028;8.916;2023-03-16T12:52:59;8.80;99.90
6843;DHT22;3460;52.028;8.916;2023-03-16T12:55:38;8.90;99.90
6843;DHT22;3460;52.028;8.916;2023-03-16T12:58:07;8.70;99.90
6843;DHT22;3460;52.028;8.916;2023-03-16T13:00:36;8.80;99.90
6843;DHT22;3460;52.028;8.916;2023-03-16T13:03:09;8.80;99.90
6843;DHT22;3460;52.028;8.916;2023-03-16T13:05:43;8.80;99.90
6843;DHT22;3460;52.028;8.916;2023-03-16T13:08:14;8.90;99.90
6843;DHT22;3460;52.028;8.916;2023-03-16T13:10:41;9.00;99.90
6843;DHT22;3460;52.028;8.916;2023-03-16T13:13:09;9.10;99.90
6843;DHT22;3460;52.028;8.916;2023-03-16T13:15:37;9.10;99.90
6843;DHT22;3460;52.028;8.916;2023-03-16T13:18:20;9.30;99.90
6843;DHT22;3460;52.028;8.916;2023-03-16T13:20:55;9.40;99.90
6843;DHT22;3460;52.028;8.916;2023-03-16T13:23:25;9.50;99.90
6843;DHT22;3460;52.028;8.916;2023-03-16T13:26:14;9.50;99.90
6843;DHT22;3460;52.028;8.916;2023-03-16T13:28:43;9.40;99.90
6843;DHT22;3460;52.028;8.916;2023-03-16T13:31:23;9.50;99.90
6843;DHT22;3460;52.028;8.916;2023-03-16T13:33:55;9.40;99.90
6843;DHT22;3460;52.028;8.916;2023-03-16T13:36:25;9.40;99.90
6843;DHT22;3460;52.028;8.916;2023-03-16T13:41:25;9.30;99.90
6843;DHT22;3460;52.028;8.916;2023-03-16T13:43:52;9.20;99.90
6843;DHT22;3460;52.028;8.916;2023-03-16T13:46:21;9.20;99.90
6843;DHT22;3460;52.028;8.916;2023-03-16T13:48:56;9.10;99.90
6843;DHT22;3460;52.028;8.916;2023-03-16T13:51:22;9.20;99.90
6843;DHT22;3460;52.028;8.916;2023-03-16T13:53:50;9.10;99.90
6843;DHT22;3460;52.028;8.916;2023-03-16T13:56:21;9.10;99.90
6843;DHT22;3460;52.028;8.916;2023-03-16T13:58:51;9.10;99.90
6843;DHT22;3460;52.028;8.916;2023-03-16T14:01:23;9.00;99.90
6843;DHT22;3460;52.028;8.916;2023-03-16T14:03:52;9.10;99.90
6843;DHT22;3460;52.028;8.916;2023-03-16T14:06:24;9.20;99.90
6843;DHT22;3460;52.028;8.916;2023-03-16T14:08:53;9.30;99.90
6843;DHT22;3460;52.028;8.916;2023-03-16T14:11:22;9.30;99.90
6843;DHT22;3460;52.028;8.916;2023-03-16T14:13:53;9.30;99.90
6843;DHT22;3460;52.028;8.916;2023-03-16T14:16:22;9.10;99.90
6843;DHT22;3460;52.028;8.916;2023-03-16T14:18:53;9.10;99.90
6843;DHT22;3460;52.028;8.916;2023-03-16T14:21:26;9.10;99.90
6843;DHT22;3460;52.028;8.916;2023-03-16T14:23:57;9.10;99.90
6843;DHT22;3460;52.028;8.916;2023-03-16T14:26:25;9.10;99.90
6843;DHT22;3460;52.028;8.916;2023-03-16T14:29:01;9.10;99.90
6843;DHT22;3460;52.028;8.916;2023-03-16T14:31:32;9.00;99.90
6843;DHT22;3460;52.028;8.916;2023-03-16T14:34:01;8.90;99.90
6843;DHT22;3460;52.028;8.916;2023-03-16T14:36:35;8.90;99.90
6843;DHT22;3460;52.028;8.916;2023-03-16T14:39:10;9.00;99.90
6843;DHT22;3460;52.028;8.916;2023-03-16T14:41:37;9.00;99.90
6843;DHT22;3460;52.028;8.916;2023-03-16T14:44:05;9.00;99.90
6843;DHT22;3460;52.028;8.916;2023-03-16T14:46:41;9.00;99.90
6843;DHT22;3460;52.028;8.916;2023-03-16T14:49:17;9.10;99.90
6843;DHT22;3460;52.028;8.916;2023-03-16T14:51:48;9.10;99.90
6843;DHT22;3460;52.028;8.916;2023-03-16T14:54:19;9.10;99.90
6843;DHT22;3460;52.028;8.916;2023-03-16T14:56:48;9.10;99.90
6843;DHT22;3460;52.028;8.916;2023-03-16T14:59:15;9.10;99.90
6843;DHT22;3460;52.028;8.916;2023-03-16T15:01:42;9.00;99.90
6843;DHT22;3460;52.028;8.916;2023-03-16T15:04:12;8.90;99.90
6843;DHT22;3460;52.028;8.916;2023-03-16T15:06:40;9.00;99.90
6843;DHT22;3460;52.028;8.916;2023-03-16T15:09:26;8.90;99.90
6843;DHT22;3460;52.028;8.916;2023-03-16T15:11:54;8.90;99.90
6843;DHT22;3460;52.028;8.916;2023-03-16T15:14:22;8.90;99.90
6843;DHT22;3460;52.028;8.916;2023-03-16T15:17:03;8.90;99.90
6843;DHT22;3460;52.028;8.916;2023-03-16T15:19:30;8.90;99.90
6843;DHT22;3460;52.028;8.916;2023-03-16T15:21:57;8.90;99.90
6843;DHT22;3460;52.028;8.916;2023-03-16T15:24:27;8.90;99.90
6843;DHT22;3460;52.028;8.916;2023-03-16T15:26:55;8.90;99.90
6843;DHT22;3460;52.028;8.916;2023-03-16T15:29:22;8.90;99.90
6843;DHT22;3460;52.028;8.916;2023-03-16T15:31:49;8.90;99.90
6843;DHT22;3460;52.028;8.916;2023-03-16T15:34:16;8.90;99.90
6843;DHT22;3460;52.028;8.916;2023-03-16T15:36:43;8.80;99.90
6843;DHT22;3460;52.028;8.916;2023-03-16T15:39:11;8.80;99.90
6843;DHT22;3460;52.028;8.916;2023-03-16T15:41:43;8.80;99.90
6843;DHT22;3460;52.028;8.916;2023-03-16T15:44:11;8.80;99.90
6843;DHT22;3460;52.028;8.916;2023-03-16T15:46:38;8.70;99.90
6843;DHT22;3460;52.028;8.916;2023-03-16T15:49:05;8.70;99.90
6843;DHT22;3460;52.028;8.916;2023-03-16T15:51:31;8.80;99.90
6843;DHT22;3460;52.028;8.916;2023-03-16T15:54:01;8.80;99.90
6843;DHT22;3460;52.028;8.916;2023-03-16T15:56:30;8.70;99.90
6843;DHT22;3460;52.028;8.916;2023-03-16T15:59:02;8.70;99.90
6843;DHT22;3460;52.028;8.916;2023-03-16T16:01:32;8.70;99.90
6843;DHT22;3460;52.028;8.916;2023-03-16T16:04:08;8.80;99.90
6843;DHT22;3460;52.028;8.916;2023-03-16T16:06:37;8.80;99.90
6843;DHT22;3460;52.028;8.916;2023-03-16T16:09:04;8.80;99.90
6843;DHT22;3460;52.028;8.916;2023-03-16T16:11:32;8.80;99.90
6843;DHT22;3460;52.028;8.916;2023-03-16T16:14:00;8.70;99.90
6843;DHT22;3460;52.028;8.916;2023-03-16T16:16:28;8.70;99.90
6843;DHT22;3460;52.028;8.916;2023-03-16T16:18:55;8.80;99.90
6843;DHT22;3460;52.028;8.916;2023-03-16T16:21:24;8.80;99.90
6843;DHT22;3460;52.028;8.916;2023-03-16T16:23:53;8.80;99.90
6843;DHT22;3460;52.028;8.916;2023-03-16T16:26:25;8.80;99.90
6843;DHT22;3460;52.028;8.916;2023-03-16T16:28:53;8.70;99.90
6843;DHT22;3460;52.028;8.916;2023-03-16T16:31:25;8.70;99.90
6843;DHT22;3460;52.028;8.916;2023-03-16T16:33:53;8.70;99.90